• Join FlightAware (Why Join?)
  • Login
  • US Flag 
11:39PM EST


 

Airport Tracker/Info


-or-


 

Live Flight TrackerFlight Track Log ✈ N5317D ✈ 14-Jul-2013 ✈ K15 - K52

Flight Track Log - Related Links

Times and Time Zones

All times are in EDT time to prevent confusion due to time zone crossing. See the N5317D flight status page for this flight to view local times or setup timezone preferences in your user account.

Time Position Orientation Groundspeed Altitude Reporting Facility
EDT Latitude Longitude Course Direction KTS MPH feet Rate Location/Type
06:42PM 38.3240 -92.5497 26° Northeast  Level Estimated
06:43PM 38.3596 -92.5278 26° Northeast  Level Estimated
06:44PM 38.3952 -92.5059 26° Northeast  Level Estimated
06:45PM 38.4307 -92.4839 26° Northeast  Level Estimated
06:46PM 38.4663 -92.4620 26° Northeast  Level Estimated
06:47PM 38.5019 -92.4400 26° Northeast  Level Estimated
06:48PM 38.5374 -92.4180 26° Northeast  Level Estimated
06:49PM 38.5730 -92.3960 26° Northeast  Level Estimated
06:50PM 38.6085 -92.3739 26° Northeast  Level Estimated
06:51PM 38.6441 -92.3518 26° Northeast  Level Estimated
06:52PM 38.6796 -92.3298 26° Northeast  Level Estimated
06:53PM 38.7152 -92.3076 26° Northeast  Level Estimated
06:54PM 38.7507 -92.2855 26° Northeast  Level Estimated
06:55PM 38.7862 -92.2634 26° Northeast  Level Estimated
06:56PM 38.8218 -92.2412 26° Northeast  Level Estimated
06:57PM 38.8573 -92.2190 26° Northeast  Level Estimated
06:58PM 38.8928 -92.1968 26° Northeast  Level Estimated
06:59PM 38.9283 -92.1745 26° Northeast  Level Estimated
07:00PM 38.9638 -92.1523 26° Northeast  Level Estimated
07:01PM 38.9993 -92.1300 26° Northeast  Level Estimated
07:02PM 39.0348 -92.1077 26° Northeast  Level Estimated
07:03PM 39.0703 -92.0853 26° Northeast  Level Estimated
07:04PM 39.1058 -92.0630 26° Northeast  Level Estimated
07:05PM 39.1413 -92.0406 26° Northeast  Level Estimated
07:06PM 39.1768 -92.0182 26° Northeast  Level Estimated
07:07PM 39.2122 -91.9958 26° Northeast  Level Estimated
07:08PM 39.2477 -91.9733 26° Northeast  Level Estimated
07:09PM 39.2832 -91.9509 26° Northeast  Level Estimated
07:10PM 39.3187 -91.9284 26° Northeast  Level Estimated
07:11PM 39.3541 -91.9059 26° Northeast  Level Estimated
07:12PM 39.3896 -91.8833 26° Northeast  Level Estimated
07:13PM 39.4250 -91.8607 26° Northeast  Level Estimated
07:14PM 39.4605 -91.8382 26° Northeast  Level Estimated
07:15PM 39.4959 -91.8156 26° Northeast  Level Estimated
07:16PM 39.5314 -91.7929 26° Northeast  Level Estimated
07:17PM 39.5668 -91.7703 26° Northeast  Level Estimated
07:18PM 39.6022 -91.7476 26° Northeast  Level Estimated
07:19PM 39.6344 -91.7270 26° Northeast  Level Estimated
07:20PM 39.6344 -91.7270 283° West  Level Estimated
07:21PM 39.6344 -91.7270 283° West  Level Estimated
07:22PM 39.6344 -91.7270 283° West  Level Estimated
07:23PM 39.6344 -91.7270 283° West  Level Estimated
07:24PM 39.6344 -91.7270 283° West  Level Estimated
07:25PM 39.6344 -91.7270 283° West  Level Estimated
07:26PM 39.6344 -91.7270 283° West  Level Estimated
07:27PM 39.6344 -91.7270 283° West  Level Estimated
07:28PM 39.6344 -91.7270 283° West  Level Estimated
07:29PM 39.6344 -91.7270 283° West  Level Estimated
07:30PM 39.6344 -91.7270 283° West  Level Estimated
07:31PM 39.6344 -91.7270 283° West  Level Estimated
07:32PM 39.6344 -91.7270 283° West  Level Estimated
07:33PM 39.6344 -91.7270 283° West  Level Estimated
07:34PM 39.6344 -91.7270 283° West  Level Estimated
07:35PM 39.6344 -91.7270 283° West  Level Estimated